Portada
METAR-TAF:

METAR-TAF

Aeropuertos :

Lanzarote, España

Aeropuerto de Lanzarote

latitud: 28-57N, longitud: 013-36W, altitud: 14 m

Observación

El informe se hizo hace 15 minutos, a las 08:30 UTC
Viento 16 kt del norte-noreste
Temperatura 21°C
Humedad 60%
Presión 1018 hPa
Visibilidad 10 km o más
Escasas nubes a una altura de 2500 ft
Nubes dispersas a una altura de 3500 ft

METAR: GCRR 170830Z 03016KT 9999 FEW025 SCT035 21/13 Q1018

Hora: 09:45 (08:45 UTC)

Pronóstico

El informe se hizo hace 45 minutos, a las 08:00 UTC
Pronóstico válido del 17 a las 09 UTC al 18 a las 09 UTC
Viento 16 kt del norte
Visibilidad 10 km o más
Nubes dispersas a una altura de 3500 ft

TAF: GCRR 170800Z 1709/1809 01016KT 9999 SCT035 TX24/1714Z TN18/1806Z

Observaciones y pronósticos meteorológicos de más de 4000 aeropuertos (mensajes METAR y TAF).

Los puntos amarillos y rojos representan las estaciones disponibles.

Ponga el ratón en el punto deseado para ver el nombre de la estación.

Haga clic para ver las observaciones y los pronósticos meteorológicos.

Para cambiar el mapa : haga clic en los botones verdes con una cruz de color negro para hacer un zoom, en el botón verde con un guión para alejar o en las flechas verdes para mapas adyacentes.


METAR-TAF: